createdAt,value
2019-04-14T00:00:41.095Z,2.09
2019-04-14T00:03:19.350Z,2.10
2019-04-14T00:05:49.801Z,2.10
2019-04-14T00:08:17.748Z,2.08
2019-04-14T00:10:44.928Z,2.08
2019-04-14T00:13:13.102Z,2.06
2019-04-14T00:15:45.044Z,2.04
2019-04-14T00:18:09.668Z,2.01
2019-04-14T00:20:38.245Z,1.98
2019-04-14T00:23:06.497Z,1.97
2019-04-14T00:25:34.766Z,1.95
2019-04-14T00:28:05.226Z,1.93
2019-04-14T00:30:32.352Z,1.89
2019-04-14T00:33:01.921Z,1.84
2019-04-14T00:35:51.672Z,1.82
2019-04-14T00:38:36.935Z,1.79
2019-04-14T00:41:10.115Z,1.74
2019-04-14T00:44:05.881Z,1.70
2019-04-14T00:46:39.446Z,1.68
2019-04-14T00:49:07.069Z,1.64
2019-04-14T00:51:37.751Z,1.59
2019-04-14T00:54:04.399Z,1.56
2019-04-14T00:56:32.282Z,1.55
2019-04-14T00:59:00.533Z,1.55
2019-04-14T01:01:28.604Z,1.53
2019-04-14T01:03:56.866Z,1.50
2019-04-14T01:06:25.090Z,1.49
2019-04-14T01:08:53.324Z,1.47
2019-04-14T01:11:22.490Z,1.43
2019-04-14T01:13:50.723Z,1.41
2019-04-14T01:16:21.687Z,1.40
2019-04-14T01:18:47.339Z,1.39
2019-04-14T01:21:15.334Z,1.45
2019-04-14T01:23:43.457Z,1.53
2019-04-14T01:26:11.767Z,1.55
2019-04-14T01:28:39.713Z,1.56
2019-04-14T01:31:07.641Z,1.57
2019-04-14T01:33:35.844Z,1.61
2019-04-14T01:36:03.952Z,1.60
2019-04-14T01:38:31.939Z,1.60
2019-04-14T01:40:59.929Z,1.63
2019-04-14T01:43:27.790Z,1.65
2019-04-14T01:46:06.082Z,1.63
2019-04-14T01:48:23.973Z,1.63
2019-04-14T01:51:13.590Z,1.63
2019-04-14T01:53:48.823Z,1.63
2019-04-14T01:56:27.350Z,1.64
2019-04-14T01:58:55.728Z,1.62
2019-04-14T02:01:26.094Z,1.59
2019-04-14T02:03:54.172Z,1.58
2019-04-14T02:06:22.318Z,1.58
2019-04-14T02:08:50.092Z,1.60
2019-04-14T02:11:18.346Z,1.59
2019-04-14T02:13:46.472Z,1.58
2019-04-14T02:16:24.031Z,1.60
2019-04-14T02:18:42.847Z,1.58
2019-04-14T02:21:10.775Z,1.56
2019-04-14T02:23:38.683Z,1.57
2019-04-14T02:26:06.934Z,1.58
2019-04-14T02:28:35.281Z,1.60
2019-04-14T02:31:19.421Z,1.61
2019-04-14T02:33:58.263Z,1.61
2019-04-14T02:39:01.352Z,1.63
2019-04-14T02:41:27.672Z,1.64
2019-04-14T02:43:57.945Z,1.63
2019-04-14T02:46:20.188Z,1.64
2019-04-14T02:56:21.456Z,1.63
2019-04-14T03:01:35.345Z,1.63
2019-04-14T03:03:43.708Z,1.65
2019-04-14T03:06:14.705Z,1.66
2019-04-14T03:11:09.360Z,1.68
2019-04-14T03:13:45.868Z,1.66
2019-04-14T03:16:16.772Z,1.66
2019-04-14T03:18:58.256Z,1.65
2019-04-14T03:22:03.007Z,1.65
2019-04-14T03:24:34.084Z,1.66
2019-04-14T03:27:22.897Z,1.63
2019-04-14T03:29:49.849Z,1.61
2019-04-14T03:32:39.696Z,1.62
2019-04-14T03:35:23.136Z,1.61
2019-04-14T03:37:42.998Z,1.61
2019-04-14T03:39:46.556Z,1.62
2019-04-14T03:42:19.892Z,1.62
2019-04-14T03:45:00.500Z,1.62
2019-04-14T03:47:13.789Z,1.63
2019-04-14T03:52:15.317Z,1.62
2019-04-14T03:54:34.961Z,1.65
2019-04-14T03:56:49.151Z,1.64
2019-04-14T03:59:17.550Z,1.64
2019-04-14T04:01:45.678Z,1.63
2019-04-14T04:04:13.932Z,1.62
2019-04-14T04:06:42.181Z,1.61
2019-04-14T04:09:10.409Z,1.62
2019-04-14T04:11:39.026Z,1.61
2019-04-14T04:14:07.329Z,1.62
2019-04-14T04:16:52.974Z,1.65
2019-04-14T04:19:42.690Z,1.68
2019-04-14T04:22:41.587Z,1.69
2019-04-14T04:25:26.868Z,1.67
2019-04-14T04:28:29.880Z,1.70
2019-04-14T04:31:02.691Z,1.70
2019-04-14T04:33:37.300Z,1.71
2019-04-14T04:36:11.930Z,1.72
2019-04-14T04:39:04.426Z,1.71
2019-04-14T04:41:31.801Z,1.74
2019-04-14T04:43:58.977Z,1.75
2019-04-14T04:46:26.550Z,1.78
2019-04-14T04:49:03.214Z,1.80
2019-04-14T04:51:22.711Z,1.84
2019-04-14T04:53:50.492Z,1.85
2019-04-14T04:56:18.655Z,1.86
2019-04-14T04:58:45.823Z,1.87
2019-04-14T05:01:12.910Z,1.88
2019-04-14T05:03:40.697Z,1.90
2019-04-14T05:06:28.869Z,1.93
2019-04-14T05:09:01.336Z,1.95
2019-04-14T05:11:45.265Z,1.97
2019-04-14T05:14:17.635Z,1.97
2019-04-14T05:16:44.702Z,2.00
2019-04-14T05:19:20.431Z,2.04
2019-04-14T05:21:40.962Z,2.07
2019-04-14T05:24:09.283Z,2.10
2019-04-14T05:26:37.362Z,2.14
2019-04-14T05:29:05.645Z,2.19
2019-04-14T05:31:33.647Z,2.24
2019-04-14T05:34:00.856Z,2.27
2019-04-14T05:36:30.297Z,2.30
2019-04-14T05:38:58.128Z,2.32
2019-04-14T05:41:26.454Z,2.36
2019-04-14T05:43:57.015Z,2.42
2019-04-14T05:46:23.062Z,2.49
2019-04-14T05:48:51.348Z,2.51
2019-04-14T05:51:20.591Z,2.55
2019-04-14T05:53:48.080Z,2.59
2019-04-14T05:56:16.354Z,2.64
2019-04-14T05:58:44.636Z,2.67
2019-04-14T06:01:13.955Z,2.70
2019-04-14T06:03:43.150Z,2.74
2019-04-14T06:06:10.379Z,2.77
2019-04-14T06:08:37.454Z,2.82
2019-04-14T06:11:04.605Z,2.84
2019-04-14T06:13:33.470Z,2.89
2019-04-14T06:16:00.544Z,2.95
2019-04-14T06:18:27.631Z,3.00
2019-04-14T06:20:54.698Z,3.06
2019-04-14T06:23:21.879Z,3.11
2019-04-14T06:25:48.943Z,3.18
2019-04-14T06:28:16.018Z,3.24
2019-04-14T06:30:52.368Z,3.30
2019-04-14T06:33:28.127Z,3.36
2019-04-14T06:36:27.442Z,3.43
2019-04-14T06:39:00.738Z,3.51
2019-04-14T06:41:27.835Z,3.60
2019-04-14T06:43:54.907Z,3.68
2019-04-14T06:46:23.779Z,3.76
2019-04-14T06:48:50.862Z,3.84
2019-04-14T06:51:17.952Z,3.93
2019-04-14T06:53:45.040Z,4.00
2019-04-14T06:56:12.133Z,4.04
2019-04-14T06:58:39.207Z,4.09
2019-04-14T07:01:06.287Z,4.18
2019-04-14T07:03:33.358Z,4.25
2019-04-14T07:06:00.440Z,4.31
2019-04-14T07:08:29.838Z,4.35
2019-04-14T07:10:56.487Z,4.44
2019-04-14T07:13:23.547Z,4.51
2019-04-14T07:15:50.657Z,4.60
2019-04-14T07:18:17.773Z,4.69
2019-04-14T07:20:46.648Z,4.78
2019-04-14T07:23:13.757Z,4.89
2019-04-14T07:25:40.827Z,4.95
2019-04-14T07:28:07.908Z,5.03
2019-04-14T07:30:54.582Z,5.14
2019-04-14T07:33:44.270Z,5.22
2019-04-14T07:36:28.173Z,5.32
2019-04-14T07:39:14.907Z,5.40
2019-04-14T07:42:07.609Z,5.52
2019-04-14T07:45:06.192Z,5.59
2019-04-14T07:47:55.852Z,5.67
2019-04-14T07:50:42.012Z,5.78
2019-04-14T07:53:29.328Z,5.89
2019-04-14T07:56:19.048Z,6.00
2019-04-14T07:58:57.323Z,6.07
2019-04-14T08:01:38.624Z,6.14
2019-04-14T08:04:26.863Z,6.21
2019-04-14T08:06:56.381Z,6.29
2019-04-14T08:09:23.464Z,6.38
2019-04-14T08:11:50.559Z,6.48
2019-04-14T08:14:17.637Z,6.57
2019-04-14T08:16:44.716Z,6.68
2019-04-14T08:19:11.800Z,6.75
2019-04-14T08:21:38.931Z,6.84
2019-04-14T08:24:05.999Z,6.93
2019-04-14T08:26:33.131Z,7.02
2019-04-14T08:29:00.202Z,7.11
2019-04-14T08:31:27.338Z,7.19
2019-04-14T08:33:54.476Z,7.25
2019-04-14T08:36:21.573Z,7.29
2019-04-14T08:38:48.649Z,7.36
2019-04-14T08:41:15.786Z,7.41
2019-04-14T08:44:03.564Z,7.45
2019-04-14T08:46:45.999Z,7.47
2019-04-14T08:49:31.887Z,7.52
2019-04-14T08:52:24.662Z,7.56
2019-04-14T08:55:06.031Z,7.60
2019-04-14T08:57:50.758Z,7.65
2019-04-14T09:00:37.438Z,7.72
2019-04-14T09:03:14.294Z,7.79
2019-04-14T09:06:09.839Z,7.89
2019-04-14T09:08:56.493Z,7.95
2019-04-14T09:11:29.486Z,8.02
2019-04-14T09:13:56.554Z,8.08
2019-04-14T09:16:23.690Z,8.14
2019-04-14T09:18:53.528Z,8.15
2019-04-14T09:21:19.759Z,8.17
2019-04-14T09:23:46.843Z,8.19
2019-04-14T09:26:13.922Z,8.27
2019-04-14T09:28:41.003Z,8.29
2019-04-14T09:31:08.096Z,8.33
2019-04-14T09:33:35.176Z,8.32
2019-04-14T09:36:02.259Z,8.26
2019-04-14T09:38:29.335Z,8.11
2019-04-14T09:40:56.417Z,8.06
2019-04-14T09:43:23.495Z,8.03
2019-04-14T09:45:50.608Z,8.02
2019-04-14T09:48:17.692Z,8.02
2019-04-14T09:50:44.774Z,8.02
2019-04-14T09:53:11.850Z,8.01
2019-04-14T09:55:38.938Z,8.00
2019-04-14T09:58:06.052Z,7.98
2019-04-14T10:00:34.731Z,7.93
2019-04-14T10:03:01.808Z,7.87
2019-04-14T10:05:28.887Z,7.82
2019-04-14T10:07:55.965Z,7.78
2019-04-14T10:10:24.946Z,7.76
2019-04-14T10:12:52.023Z,7.77
2019-04-14T10:15:19.110Z,7.80
2019-04-14T10:17:46.190Z,7.73
2019-04-14T10:20:13.275Z,7.57
2019-04-14T10:22:40.357Z,7.55
2019-04-14T10:25:07.468Z,7.59
2019-04-14T10:27:35.940Z,7.65
2019-04-14T10:30:03.604Z,7.69
2019-04-14T10:32:30.693Z,7.73
2019-04-14T10:34:57.788Z,7.77
2019-04-14T10:37:24.869Z,7.79
2019-04-14T10:39:51.981Z,7.80
2019-04-14T10:42:19.057Z,7.80
2019-04-14T10:44:46.205Z,7.76
2019-04-14T10:47:13.280Z,7.78
2019-04-14T10:49:40.348Z,7.81
2019-04-14T10:52:07.422Z,7.80
2019-04-14T10:54:34.502Z,7.76
2019-04-14T10:57:01.620Z,7.76
2019-04-14T10:59:28.716Z,7.79
2019-04-14T11:01:55.792Z,7.79
2019-04-14T11:04:22.870Z,7.79
2019-04-14T11:07:10.716Z,7.83
2019-04-14T11:09:37.801Z,7.88
2019-04-14T11:12:05.519Z,7.92
2019-04-14T11:14:32.690Z,7.94
2019-04-14T11:16:59.776Z,8.00
2019-04-14T11:19:26.855Z,8.10
2019-04-14T11:21:53.940Z,8.17
2019-04-14T11:24:21.032Z,8.22
2019-04-14T11:26:48.103Z,8.26
2019-04-14T11:29:15.175Z,8.28
2019-04-14T11:32:01.835Z,8.30
2019-04-14T11:34:35.629Z,8.36
2019-04-14T11:37:13.443Z,8.41
2019-04-14T11:39:41.017Z,8.40
2019-04-14T11:42:08.097Z,8.41
2019-04-14T11:44:35.193Z,8.32
2019-04-14T11:47:03.374Z,8.24
2019-04-14T11:49:30.457Z,8.25
2019-04-14T11:51:57.535Z,8.27
2019-04-14T11:54:24.620Z,8.29
2019-04-14T11:56:52.017Z,8.32
2019-04-14T11:59:24.901Z,8.36
2019-04-14T12:02:13.004Z,8.42
2019-04-14T12:04:44.670Z,8.48
2019-04-14T12:07:34.098Z,8.53
2019-04-14T12:10:14.830Z,8.52
2019-04-14T12:12:42.071Z,8.54
2019-04-14T12:15:16.062Z,8.54
2019-04-14T12:17:38.150Z,8.52
2019-04-14T12:20:06.488Z,8.51
2019-04-14T12:22:33.564Z,8.52
2019-04-14T12:25:00.662Z,8.54
2019-04-14T12:27:27.749Z,8.55
2019-04-14T12:29:55.159Z,8.59
2019-04-14T12:32:26.130Z,8.63
2019-04-14T12:34:54.719Z,8.70
2019-04-14T12:37:21.807Z,8.71
2019-04-14T12:39:49.002Z,8.71
2019-04-14T12:42:41.792Z,8.73
2019-04-14T12:45:37.690Z,8.75
2019-04-14T12:48:12.316Z,8.73
2019-04-14T12:50:43.308Z,8.78
2019-04-14T12:53:10.450Z,8.85
2019-04-14T12:55:37.654Z,8.91
2019-04-14T12:58:05.640Z,8.92
2019-04-14T13:00:38.114Z,8.95
2019-04-14T13:03:05.191Z,8.94
2019-04-14T13:05:32.332Z,8.95
2019-04-14T13:07:59.439Z,8.92
2019-04-14T13:10:26.556Z,8.90
2019-04-14T13:12:53.704Z,8.92
2019-04-14T13:15:20.782Z,8.90
2019-04-14T13:17:47.933Z,8.91
2019-04-14T13:20:15.072Z,8.94
2019-04-14T13:22:43.950Z,8.99
2019-04-14T13:25:11.360Z,9.05
2019-04-14T13:27:38.682Z,9.08
2019-04-14T13:30:08.627Z,9.13
2019-04-14T13:32:36.493Z,9.18
2019-04-14T13:35:03.975Z,9.26
2019-04-14T13:37:31.097Z,9.33
2019-04-14T13:39:58.182Z,9.38
2019-04-14T13:42:25.270Z,9.38
2019-04-14T13:44:52.349Z,9.36
2019-04-14T13:47:19.464Z,9.36
2019-04-14T13:49:46.561Z,9.34
2019-04-14T13:52:13.635Z,9.35
2019-04-14T13:54:40.735Z,9.36
2019-04-14T13:57:07.834Z,9.32
2019-04-14T13:59:34.960Z,9.33
2019-04-14T14:02:02.103Z,9.28
2019-04-14T14:04:29.214Z,9.24
2019-04-14T14:06:56.298Z,9.27
2019-04-14T14:09:23.470Z,9.29
2019-04-14T14:12:15.044Z,9.31
2019-04-14T14:14:54.894Z,9.29
2019-04-14T14:17:41.511Z,9.35
2019-04-14T14:20:19.917Z,9.39
2019-04-14T14:23:27.958Z,9.43
2019-04-14T14:25:59.359Z,9.50
2019-04-14T14:28:26.454Z,9.57
2019-04-14T14:30:53.549Z,9.53
2019-04-14T14:33:22.427Z,9.47
2019-04-14T14:35:49.530Z,9.43
2019-04-14T14:38:16.640Z,9.58
2019-04-14T14:40:43.865Z,9.86
2019-04-14T14:43:11.025Z,10.11
2019-04-14T14:45:55.119Z,10.43
2019-04-14T14:48:28.053Z,10.70
2019-04-14T14:51:09.265Z,10.98
2019-04-14T14:53:36.338Z,10.97
2019-04-14T14:56:03.553Z,11.14
2019-04-14T14:58:30.671Z,11.31
2019-04-14T15:00:57.751Z,11.32
2019-04-14T15:03:24.931Z,11.11
2019-04-14T15:05:53.218Z,10.89
2019-04-14T15:08:20.298Z,10.66
2019-04-14T15:10:47.373Z,10.51
2019-04-14T15:13:14.455Z,10.43
2019-04-14T15:15:41.537Z,10.28
2019-04-14T15:18:08.630Z,10.17
2019-04-14T15:20:35.690Z,10.11
2019-04-14T15:23:03.031Z,10.02
2019-04-14T15:25:30.171Z,9.89
2019-04-14T15:27:57.254Z,9.91
2019-04-14T15:30:24.435Z,9.95
2019-04-14T15:32:51.532Z,9.97
2019-04-14T15:35:18.709Z,9.95
2019-04-14T15:37:45.774Z,9.94
2019-04-14T15:40:13.050Z,9.96
2019-04-14T15:42:40.133Z,9.97
2019-04-14T15:45:07.811Z,10.00
2019-04-14T15:47:34.900Z,9.99
2019-04-14T15:50:01.981Z,9.84
2019-04-14T15:52:29.046Z,9.72
2019-04-14T15:54:56.135Z,9.67
2019-04-14T15:57:54.663Z,9.63
2019-04-14T16:00:39.935Z,9.59
2019-04-14T16:03:32.664Z,9.53
2019-04-14T16:06:16.001Z,9.52
2019-04-14T16:08:49.725Z,9.46
2019-04-14T16:11:26.591Z,9.40
2019-04-14T16:14:11.733Z,9.31
2019-04-14T16:16:57.234Z,9.21
2019-04-14T16:19:32.487Z,9.11
2019-04-14T16:21:59.571Z,9.05
2019-04-14T16:24:26.649Z,9.05
2019-04-14T16:27:00.881Z,9.07
2019-04-14T16:29:59.848Z,9.05
2019-04-14T16:32:45.746Z,8.98
2019-04-14T16:35:17.134Z,8.91
2019-04-14T16:37:44.244Z,8.81
2019-04-14T16:40:11.398Z,8.73
2019-04-14T16:42:38.536Z,8.52
2019-04-14T16:45:06.347Z,8.28
2019-04-14T16:47:36.140Z,8.11
2019-04-14T16:50:02.954Z,7.90
2019-04-14T16:52:38.167Z,7.84
2019-04-14T16:55:13.503Z,7.83
2019-04-14T16:58:18.384Z,7.82
2019-04-14T17:00:52.036Z,7.79
2019-04-14T17:03:19.318Z,7.79
2019-04-14T17:05:46.597Z,7.74
2019-04-14T17:08:13.767Z,7.67
2019-04-14T17:10:40.855Z,7.62
2019-04-14T17:13:08.314Z,7.53
2019-04-14T17:15:57.752Z,7.48
2019-04-14T17:18:39.692Z,7.46
2019-04-14T17:21:36.043Z,7.37
2019-04-14T17:24:25.864Z,7.23
2019-04-14T17:27:08.519Z,7.13
2019-04-14T17:29:43.983Z,7.00
2019-04-14T17:32:33.406Z,6.90
2019-04-14T17:35:22.923Z,6.87
2019-04-14T17:37:54.963Z,6.82
2019-04-14T17:40:34.238Z,6.76
2019-04-14T17:43:14.797Z,6.71
2019-04-14T17:45:57.618Z,6.64
2019-04-14T17:48:59.522Z,6.57
2019-04-14T17:51:35.455Z,6.51
2019-04-14T17:54:29.737Z,6.45
2019-04-14T17:57:12.529Z,6.38
2019-04-14T17:59:46.111Z,6.32
2019-04-14T18:02:33.897Z,6.25
2019-04-14T18:05:13.928Z,6.22
2019-04-14T18:07:48.534Z,6.16
2019-04-14T18:10:30.129Z,6.07
2019-04-14T18:13:25.802Z,6.01
2019-04-14T18:16:01.289Z,5.94
2019-04-14T18:18:47.954Z,5.87
2019-04-14T18:21:15.023Z,5.81
2019-04-14T18:23:42.128Z,5.75
2019-04-14T18:26:09.548Z,5.66
2019-04-14T18:29:08.509Z,5.57
2019-04-14T18:31:44.804Z,5.53
2019-04-14T18:34:30.165Z,5.46
2019-04-14T18:37:05.444Z,5.35
2019-04-14T18:39:52.054Z,5.27
2019-04-14T18:42:23.326Z,5.22
2019-04-14T18:45:08.865Z,5.15
2019-04-14T18:47:47.915Z,5.07
2019-04-14T18:50:34.612Z,5.01
2019-04-14T18:53:08.317Z,4.93
2019-04-14T18:56:00.992Z,4.85
2019-04-14T18:58:47.647Z,4.79
2019-04-14T19:01:17.103Z,4.71
2019-04-14T19:03:44.173Z,4.64
2019-04-14T19:06:11.347Z,4.60
2019-04-14T19:08:38.421Z,4.53
2019-04-14T19:11:24.701Z,4.48
2019-04-14T19:13:53.197Z,4.41
2019-04-14T19:16:38.201Z,4.37
2019-04-14T19:18:57.138Z,4.33
2019-04-14T19:21:26.649Z,4.28
2019-04-14T19:23:54.835Z,4.26
2019-04-14T19:26:24.768Z,4.21
2019-04-14T19:28:51.848Z,4.19
2019-04-14T19:31:20.041Z,4.15
2019-04-14T19:33:47.212Z,4.12
2019-04-14T19:36:14.292Z,4.08
2019-04-14T19:38:41.375Z,4.04
2019-04-14T19:41:10.323Z,3.99
2019-04-14T19:43:37.510Z,3.94
2019-04-14T19:46:04.586Z,3.85
2019-04-14T19:48:31.768Z,3.73
2019-04-14T19:50:58.938Z,3.64
2019-04-14T19:53:26.023Z,3.56
2019-04-14T19:55:53.128Z,3.52
2019-04-14T19:58:21.021Z,3.48
2019-04-14T20:00:48.184Z,3.45
2019-04-14T20:03:15.314Z,3.40
2019-04-14T20:05:42.518Z,3.32
2019-04-14T20:08:09.615Z,3.25
2019-04-14T20:10:36.727Z,3.22
2019-04-14T20:13:05.115Z,3.19
2019-04-14T20:15:36.823Z,3.19
2019-04-14T20:18:13.299Z,3.16
2019-04-14T20:21:15.680Z,3.11
2019-04-14T20:23:53.723Z,3.04
2019-04-14T20:26:43.260Z,2.97
2019-04-14T20:29:12.895Z,2.91
2019-04-14T20:31:51.490Z,2.81
2019-04-14T20:34:18.638Z,2.75
2019-04-14T20:36:45.727Z,2.66
2019-04-14T20:39:18.235Z,2.56
2019-04-14T20:41:45.412Z,2.51
2019-04-14T20:44:12.518Z,2.41
2019-04-14T20:46:39.677Z,2.32
2019-04-14T20:49:07.334Z,2.28
2019-04-14T20:51:34.963Z,2.26
2019-04-14T20:54:03.950Z,2.25
2019-04-14T20:56:31.034Z,2.23
2019-04-14T20:58:58.131Z,2.21
2019-04-14T21:01:27.179Z,2.19
2019-04-14T21:04:01.392Z,2.16
2019-04-14T21:06:36.699Z,2.13
2019-04-14T21:09:20.559Z,2.09
2019-04-14T21:12:03.784Z,2.04
2019-04-14T21:14:50.535Z,1.94
2019-04-14T21:17:25.939Z,1.87
2019-04-14T21:20:01.833Z,1.84
2019-04-14T21:22:42.463Z,1.80
2019-04-14T21:25:41.125Z,1.78
2019-04-14T21:28:20.694Z,1.71
2019-04-14T21:31:13.421Z,1.58
2019-04-14T21:34:02.739Z,1.52
2019-04-14T21:36:34.486Z,1.43
2019-04-14T21:39:30.297Z,1.32
2019-04-14T21:41:57.582Z,1.25
2019-04-14T21:44:24.644Z,1.20
2019-04-14T21:46:51.718Z,1.19
2019-04-14T21:49:18.795Z,1.18
2019-04-14T21:51:59.271Z,1.13
2019-04-14T21:54:26.339Z,1.07
2019-04-14T21:57:19.211Z,1.06
2019-04-14T22:00:05.090Z,1.04
2019-04-14T22:03:02.988Z,1.02
2019-04-14T22:05:41.702Z,0.92
2019-04-14T22:08:15.707Z,0.86
2019-04-14T22:10:46.086Z,0.85
2019-04-14T22:13:13.286Z,0.83
2019-04-14T22:15:40.333Z,0.84
2019-04-14T22:18:07.495Z,0.82
2019-04-14T22:20:34.572Z,0.76
2019-04-14T22:23:03.550Z,0.70
2019-04-14T22:25:30.634Z,0.69
2019-04-14T22:27:57.698Z,0.68
2019-04-14T22:30:24.769Z,0.66
2019-04-14T22:32:51.849Z,0.62
2019-04-14T22:35:18.913Z,0.62
2019-04-14T22:37:45.983Z,0.61
2019-04-14T22:40:13.899Z,0.58
2019-04-14T22:42:42.763Z,0.57
2019-04-14T22:45:10.577Z,0.56
2019-04-14T22:47:37.659Z,0.51
2019-04-14T22:50:05.602Z,0.44
2019-04-14T22:52:32.773Z,0.42
2019-04-14T22:54:59.896Z,0.37
2019-04-14T22:57:27.013Z,0.35
2019-04-14T22:59:55.878Z,0.32
2019-04-14T23:02:49.994Z,0.31
2019-04-14T23:05:42.354Z,0.30
2019-04-14T23:08:34.831Z,0.29
2019-04-14T23:11:20.791Z,0.27
2019-04-14T23:14:10.539Z,0.26
2019-04-14T23:17:00.256Z,0.25
2019-04-14T23:19:38.530Z,0.24
2019-04-14T23:22:31.563Z,0.21
2019-04-14T23:24:58.632Z,0.18
2019-04-14T23:27:25.731Z,0.16
2019-04-14T23:29:52.782Z,0.16
2019-04-14T23:32:19.947Z,0.15
2019-04-14T23:34:47.047Z,0.13
2019-04-14T23:37:14.129Z,0.11
2019-04-14T23:39:41.207Z,0.10
2019-04-14T23:42:08.268Z,0.08
2019-04-14T23:44:35.383Z,0.05
2019-04-14T23:47:02.662Z,0.04
2019-04-14T23:49:29.745Z,0.02
2019-04-14T23:51:58.627Z,-0.01
2019-04-14T23:54:25.728Z,-0.03
2019-04-14T23:57:04.752Z,-0.05
2019-04-14T23:59:21.745Z,-0.05
